Aviation Digital Data Service (ADDS)

Output produced by METARs form (1732 UTC 24 August 2019)
found at http://www.aviationweather.gov/metar/data/
 
METAR text: ROMD 241700Z AUTO 17005KT 9999 FEW012 28/26 Q1013
Conditions at: ROMD (MINAMIDAITOJIMA , JP) observed 1700 UTC 24 August 2019
Temperature: 28.0°C (82°F)
Dewpoint: 26.0°C (79°F) [RH = 89%]
Pressure (altimeter): 29.91 inches Hg (1013.0 mb)
Winds: from the S (170 degrees) at 6 MPH (5 knots; 2.6 m/s)
Visibility: 6 or more miles (10+ km)
Ceiling: at least 12,000 feet AGL
Clouds: few clouds at 1200 feet AGL
Weather: no significant weather observed at this time

METAR text: ROMD 241600Z AUTO 16005KT 9999 SCT012 28/26 Q1013
Conditions at: ROMD (MINAMIDAITOJIMA , JP) observed 1600 UTC 24 August 2019
Temperature: 28.0°C (82°F)
Dewpoint: 26.0°C (79°F) [RH = 89%]
Pressure (altimeter): 29.91 inches Hg (1013.0 mb)
Winds: from the SSE (160 degrees) at 6 MPH (5 knots; 2.6 m/s)
Visibility: 6 or more miles (10+ km)
Ceiling: at least 12,000 feet AGL
Clouds: scattered clouds at 1200 feet AGL
Weather: no significant weather observed at this time

METAR text: ROMD 241500Z AUTO 16006KT 130V190 9999 FEW014 28/26 Q1013
Conditions at: ROMD (MINAMIDAITOJIMA , JP) observed 1500 UTC 24 August 2019
Temperature: 28.0°C (82°F)
Dewpoint: 26.0°C (79°F) [RH = 89%]
Pressure (altimeter): 29.91 inches Hg (1013.0 mb)
Winds: from the SSE (160 degrees) at 7 MPH (6 knots; 3.1 m/s)
Visibility: 6 or more miles (10+ km)
Ceiling: at least 12,000 feet AGL
Clouds: few clouds at 1400 feet AGL
Weather: no significant weather observed at this time

METAR text: ROMD 241400Z AUTO 15006KT 110V190 9999 SCT012 SCT019 28/26 Q1013
Conditions at: ROMD (MINAMIDAITOJIMA , JP) observed 1400 UTC 24 August 2019
Temperature: 28.0°C (82°F)
Dewpoint: 26.0°C (79°F) [RH = 89%]
Pressure (altimeter): 29.91 inches Hg (1013.0 mb)
Winds: from the SSE (150 degrees) at 7 MPH (6 knots; 3.1 m/s)
Visibility: 6 or more miles (10+ km)
Ceiling: at least 12,000 feet AGL
Clouds: scattered clouds at 1200 feet AGL
scattered clouds at 1900 feet AGL
Weather: no significant weather observed at this time

METAR text: ROMD 241300Z AUTO 15004KT 090V190 9999 SCT013 28/26 Q1014
Conditions at: ROMD (MINAMIDAITOJIMA , JP) observed 1300 UTC 24 August 2019
Temperature: 28.0°C (82°F)
Dewpoint: 26.0°C (79°F) [RH = 89%]
Pressure (altimeter): 29.94 inches Hg (1014.0 mb)
Winds: from the SSE (150 degrees) at 5 MPH (4 knots; 2.1 m/s)
Visibility: 6 or more miles (10+ km)
Ceiling: at least 12,000 feet AGL
Clouds: scattered clouds at 1300 feet AGL
Weather: no significant weather observed at this time

METAR text: ROMD 241200Z AUTO 15004KT 120V210 9999 FEW013 SCT019 28/26 Q1014
Conditions at: ROMD (MINAMIDAITOJIMA , JP) observed 1200 UTC 24 August 2019
Temperature: 28.0°C (82°F)
Dewpoint: 26.0°C (79°F) [RH = 89%]
Pressure (altimeter): 29.94 inches Hg (1014.0 mb)
Winds: from the SSE (150 degrees) at 5 MPH (4 knots; 2.1 m/s)
Visibility: 6 or more miles (10+ km)
Ceiling: at least 12,000 feet AGL
Clouds: few clouds at 1300 feet AGL
scattered clouds at 1900 feet AGL
Weather: no significant weather observed at this time

METAR text: ROMD 241100Z AUTO 15004KT 120V200 9999 SCT012 SCT016 BKN019 28/26 Q1014
Conditions at: ROMD (MINAMIDAITOJIMA , JP) observed 1100 UTC 24 August 2019
Temperature: 28.0°C (82°F)
Dewpoint: 26.0°C (79°F) [RH = 89%]
Pressure (altimeter): 29.94 inches Hg (1014.0 mb)
Winds: from the SSE (150 degrees) at 5 MPH (4 knots; 2.1 m/s)
Visibility: 6 or more miles (10+ km)
Ceiling: 1900 feet AGL
Clouds: scattered clouds at 1200 feet AGL
scattered clouds at 1600 feet AGL
broken clouds at 1900 feet AGL
Weather: no significant weather observed at this time

METAR text: ROMD 241000Z AUTO 16004KT 120V200 9999 BKN013 29/26 Q1013
Conditions at: ROMD (MINAMIDAITOJIMA , JP) observed 1000 UTC 24 August 2019
Temperature: 29.0°C (84°F)
Dewpoint: 26.0°C (79°F) [RH = 84%]
Pressure (altimeter): 29.91 inches Hg (1013.0 mb)
Winds: from the SSE (160 degrees) at 5 MPH (4 knots; 2.1 m/s)
Visibility: 6 or more miles (10+ km)
Ceiling: 1300 feet AGL
Clouds: broken clouds at 1300 feet AGL
Weather: no significant weather observed at this time

METAR text: ROMD 240900Z AUTO 16005KT 120V190 9999 FEW013 29/26 Q1013
Conditions at: ROMD (MINAMIDAITOJIMA , JP) observed 0900 UTC 24 August 2019
Temperature: 29.0°C (84°F)
Dewpoint: 26.0°C (79°F) [RH = 84%]
Pressure (altimeter): 29.91 inches Hg (1013.0 mb)
Winds: from the SSE (160 degrees) at 6 MPH (5 knots; 2.6 m/s)
Visibility: 6 or more miles (10+ km)
Ceiling: at least 12,000 feet AGL
Clouds: few clouds at 1300 feet AGL
Weather: no significant weather observed at this time

METAR text: ROMD 240800Z AUTO 15006KT 110V200 9999 FEW014 30/26 Q1013
Conditions at: ROMD (MINAMIDAITOJIMA , JP) observed 0800 UTC 24 August 2019
Temperature: 30.0°C (86°F)
Dewpoint: 26.0°C (79°F) [RH = 79%]
Pressure (altimeter): 29.91 inches Hg (1013.0 mb)
Winds: from the SSE (150 degrees) at 7 MPH (6 knots; 3.1 m/s)
Visibility: 6 or more miles (10+ km)
Ceiling: at least 12,000 feet AGL
Clouds: few clouds at 1400 feet AGL
Weather: no significant weather observed at this time

METAR text: ROMD 240700Z AUTO 14007KT 120V180 9999 FEW014 31/27 Q1012
Conditions at: ROMD (MINAMIDAITOJIMA , JP) observed 0700 UTC 24 August 2019
Temperature: 31.0°C (88°F)
Dewpoint: 27.0°C (81°F) [RH = 79%]
Pressure (altimeter): 29.88 inches Hg (1012.0 mb)
Winds: from the SE (140 degrees) at 8 MPH (7 knots; 3.6 m/s)
Visibility: 6 or more miles (10+ km)
Ceiling: at least 12,000 feet AGL
Clouds: few clouds at 1400 feet AGL
Weather: no significant weather observed at this time

METAR text: ROMD 240600Z AUTO 15007KT 100V200 9999 FEW015 31/26 Q1012
Conditions at: ROMD (MINAMIDAITOJIMA , JP) observed 0600 UTC 24 August 2019
Temperature: 31.0°C (88°F)
Dewpoint: 26.0°C (79°F) [RH = 75%]
Pressure (altimeter): 29.88 inches Hg (1012.0 mb)
Winds: from the SSE (150 degrees) at 8 MPH (7 knots; 3.6 m/s)
Visibility: 6 or more miles (10+ km)
Ceiling: at least 12,000 feet AGL
Clouds: few clouds at 1500 feet AGL
Weather: no significant weather observed at this time

METAR text: ROMD 240500Z AUTO 16008KT 120V190 9999 SCT013 31/27 Q1012
Conditions at: ROMD (MINAMIDAITOJIMA , JP) observed 0500 UTC 24 August 2019
Temperature: 31.0°C (88°F)
Dewpoint: 27.0°C (81°F) [RH = 79%]
Pressure (altimeter): 29.88 inches Hg (1012.0 mb)
Winds: from the SSE (160 degrees) at 9 MPH (8 knots; 4.1 m/s)
Visibility: 6 or more miles (10+ km)
Ceiling: at least 12,000 feet AGL
Clouds: scattered clouds at 1300 feet AGL
Weather: no significant weather observed at this time

METAR text: ROMD 240400Z AUTO 16009KT 120V200 9999 FEW013 31/27 Q1012
Conditions at: ROMD (MINAMIDAITOJIMA , JP) observed 0400 UTC 24 August 2019
Temperature: 31.0°C (88°F)
Dewpoint: 27.0°C (81°F) [RH = 79%]
Pressure (altimeter): 29.88 inches Hg (1012.0 mb)
Winds: from the SSE (160 degrees) at 10 MPH (9 knots; 4.6 m/s)
Visibility: 6 or more miles (10+ km)
Ceiling: at least 12,000 feet AGL
Clouds: few clouds at 1300 feet AGL
Weather: no significant weather observed at this time

METAR text: ROMD 240300Z AUTO 16008KT 120V190 9999 SCT013 31/27 Q1013
Conditions at: ROMD (MINAMIDAITOJIMA , JP) observed 0300 UTC 24 August 2019
Temperature: 31.0°C (88°F)
Dewpoint: 27.0°C (81°F) [RH = 79%]
Pressure (altimeter): 29.91 inches Hg (1013.0 mb)
Winds: from the SSE (160 degrees) at 9 MPH (8 knots; 4.1 m/s)
Visibility: 6 or more miles (10+ km)
Ceiling: at least 12,000 feet AGL
Clouds: scattered clouds at 1300 feet AGL
Weather: no significant weather observed at this time

METAR text: ROMD 240200Z AUTO 16009KT 100V190 9999 FEW014 31/27 Q1013
Conditions at: ROMD (MINAMIDAITOJIMA , JP) observed 0200 UTC 24 August 2019
Temperature: 31.0°C (88°F)
Dewpoint: 27.0°C (81°F) [RH = 79%]
Pressure (altimeter): 29.91 inches Hg (1013.0 mb)
Winds: from the SSE (160 degrees) at 10 MPH (9 knots; 4.6 m/s)
Visibility: 6 or more miles (10+ km)
Ceiling: at least 12,000 feet AGL
Clouds: few clouds at 1400 feet AGL
Weather: no significant weather observed at this time

METAR text: ROMD 240100Z AUTO 16008KT 120V190 9999 BKN013 31/27 Q1013
Conditions at: ROMD (MINAMIDAITOJIMA , JP) observed 0100 UTC 24 August 2019
Temperature: 31.0°C (88°F)
Dewpoint: 27.0°C (81°F) [RH = 79%]
Pressure (altimeter): 29.91 inches Hg (1013.0 mb)
Winds: from the SSE (160 degrees) at 9 MPH (8 knots; 4.1 m/s)
Visibility: 6 or more miles (10+ km)
Ceiling: 1300 feet AGL
Clouds: broken clouds at 1300 feet AGL
Weather: no significant weather observed at this time

METAR text: ROMD 240000Z AUTO 16009KT 130V200 9999 BKN013 30/27 Q1013
Conditions at: ROMD (MINAMIDAITOJIMA , JP) observed 0000 UTC 24 August 2019
Temperature: 30.0°C (86°F)
Dewpoint: 27.0°C (81°F) [RH = 84%]
Pressure (altimeter): 29.91 inches Hg (1013.0 mb)
Winds: from the SSE (160 degrees) at 10 MPH (9 knots; 4.6 m/s)
Visibility: 6 or more miles (10+ km)
Ceiling: 1300 feet AGL
Clouds: broken clouds at 1300 feet AGL
Weather: no significant weather observed at this time

METAR text: ROMD 232300Z AUTO 16008KT 120V190 9999 SCT013 SCT019 29/26 Q1013
Conditions at: ROMD (MINAMIDAITOJIMA , JP) observed 2300 UTC 23 August 2019
Temperature: 29.0°C (84°F)
Dewpoint: 26.0°C (79°F) [RH = 84%]
Pressure (altimeter): 29.91 inches Hg (1013.0 mb)
Winds: from the SSE (160 degrees) at 9 MPH (8 knots; 4.1 m/s)
Visibility: 6 or more miles (10+ km)
Ceiling: at least 12,000 feet AGL
Clouds: scattered clouds at 1300 feet AGL
scattered clouds at 1900 feet AGL
Weather: no significant weather observed at this time

METAR text: ROMD 232200Z AUTO 17009KT 120V200 9999 SCT013 SCT017 BKN023 29/26 Q1013
Conditions at: ROMD (MINAMIDAITOJIMA , JP) observed 2200 UTC 23 August 2019
Temperature: 29.0°C (84°F)
Dewpoint: 26.0°C (79°F) [RH = 84%]
Pressure (altimeter): 29.91 inches Hg (1013.0 mb)
Winds: from the S (170 degrees) at 10 MPH (9 knots; 4.6 m/s)
Visibility: 6 or more miles (10+ km)
Ceiling: 2300 feet AGL
Clouds: scattered clouds at 1300 feet AGL
scattered clouds at 1700 feet AGL
broken clouds at 2300 feet AGL
Weather: no significant weather observed at this time

METAR text: ROMD 232100Z AUTO 17009KT 130V200 9999 SCT014 BKN018 28/26 Q1012
Conditions at: ROMD (MINAMIDAITOJIMA , JP) observed 2100 UTC 23 August 2019
Temperature: 28.0°C (82°F)
Dewpoint: 26.0°C (79°F) [RH = 89%]
Pressure (altimeter): 29.88 inches Hg (1012.0 mb)
Winds: from the S (170 degrees) at 10 MPH (9 knots; 4.6 m/s)
Visibility: 6 or more miles (10+ km)
Ceiling: 1800 feet AGL
Clouds: scattered clouds at 1400 feet AGL
broken clouds at 1800 feet AGL
Weather: no significant weather observed at this time

METAR text: ROMD 232000Z AUTO 16009KT 120V190 9999 BKN012 28/26 Q1011
Conditions at: ROMD (MINAMIDAITOJIMA , JP) observed 2000 UTC 23 August 2019
Temperature: 28.0°C (82°F)
Dewpoint: 26.0°C (79°F) [RH = 89%]
Pressure (altimeter): 29.85 inches Hg (1011.0 mb)
Winds: from the SSE (160 degrees) at 10 MPH (9 knots; 4.6 m/s)
Visibility: 6 or more miles (10+ km)
Ceiling: 1200 feet AGL
Clouds: broken clouds at 1200 feet AGL
Weather: no significant weather observed at this time

METAR text: ROMD 231900Z AUTO 16009KT 120V210 9999 BKN012 28/26 Q1011
Conditions at: ROMD (MINAMIDAITOJIMA , JP) observed 1900 UTC 23 August 2019
Temperature: 28.0°C (82°F)
Dewpoint: 26.0°C (79°F) [RH = 89%]
Pressure (altimeter): 29.85 inches Hg (1011.0 mb)
Winds: from the SSE (160 degrees) at 10 MPH (9 knots; 4.6 m/s)
Visibility: 6 or more miles (10+ km)
Ceiling: 1200 feet AGL
Clouds: broken clouds at 1200 feet AGL
Weather: no significant weather observed at this time

METAR text: ROMD 231800Z AUTO 16009KT 120V200 9999 BKN011 28/27 Q1011
Conditions at: ROMD (MINAMIDAITOJIMA , JP) observed 1800 UTC 23 August 2019
Temperature: 28.0°C (82°F)
Dewpoint: 27.0°C (81°F) [RH = 94%]
Pressure (altimeter): 29.85 inches Hg (1011.0 mb)
Winds: from the SSE (160 degrees) at 10 MPH (9 knots; 4.6 m/s)
Visibility: 6 or more miles (10+ km)
Ceiling: 1100 feet AGL
Clouds: broken clouds at 1100 feet AGL
Weather: no significant weather observed at this time

METAR text: ROMD 231700Z AUTO 16009KT 120V190 9999 BKN011 28/26 Q1011
Conditions at: ROMD (MINAMIDAITOJIMA , JP) observed 1700 UTC 23 August 2019
Temperature: 28.0°C (82°F)
Dewpoint: 26.0°C (79°F) [RH = 89%]
Pressure (altimeter): 29.85 inches Hg (1011.0 mb)
Winds: from the SSE (160 degrees) at 10 MPH (9 knots; 4.6 m/s)
Visibility: 6 or more miles (10+ km)
Ceiling: 1100 feet AGL
Clouds: broken clouds at 1100 feet AGL
Weather: no significant weather observed at this time

METAR text: ROMD 231600Z AUTO 16010KT 9999 FEW011 SCT200 28/26 Q1012
Conditions at: ROMD (MINAMIDAITOJIMA , JP) observed 1600 UTC 23 August 2019
Temperature: 28.0°C (82°F)
Dewpoint: 26.0°C (79°F) [RH = 89%]
Pressure (altimeter): 29.88 inches Hg (1012.0 mb)
Winds: from the SSE (160 degrees) at 12 MPH (10 knots; 5.1 m/s)
Visibility: 6 or more miles (10+ km)
Ceiling: at least 12,000 feet AGL
Clouds: few clouds at 1100 feet AGL
scattered clouds at 20000 feet AGL
Weather: no significant weather observed at this time

METAR text: ROMD 231500Z AUTO 15011KT 110V190 9999 NSC 28/26 Q1012
Conditions at: ROMD (MINAMIDAITOJIMA , JP) observed 1500 UTC 23 August 2019
Temperature: 28.0°C (82°F)
Dewpoint: 26.0°C (79°F) [RH = 89%]
Pressure (altimeter): 29.88 inches Hg (1012.0 mb)
Winds: from the SSE (150 degrees) at 13 MPH (11 knots; 5.7 m/s)
Visibility: 6 or more miles (10+ km)
Ceiling: at least 12,000 feet AGL
Clouds: sky clear below 12,000 feet AGL
Weather: no significant weather observed at this time

METAR text: ROMD 231400Z AUTO 14011KT 110V180 9999 NSC 28/26 Q1012
Conditions at: ROMD (MINAMIDAITOJIMA , JP) observed 1400 UTC 23 August 2019
Temperature: 28.0°C (82°F)
Dewpoint: 26.0°C (79°F) [RH = 89%]
Pressure (altimeter): 29.88 inches Hg (1012.0 mb)
Winds: from the SE (140 degrees) at 13 MPH (11 knots; 5.7 m/s)
Visibility: 6 or more miles (10+ km)
Ceiling: at least 12,000 feet AGL
Clouds: sky clear below 12,000 feet AGL
Weather: no significant weather observed at this time

METAR text: ROMD 231300Z AUTO 14012KT 9999 SCT012 OVC200 29/26 Q1013
Conditions at: ROMD (MINAMIDAITOJIMA , JP) observed 1300 UTC 23 August 2019
Temperature: 29.0°C (84°F)
Dewpoint: 26.0°C (79°F) [RH = 84%]
Pressure (altimeter): 29.91 inches Hg (1013.0 mb)
Winds: from the SE (140 degrees) at 14 MPH (12 knots; 6.2 m/s)
Visibility: 6 or more miles (10+ km)
Ceiling: 20000 feet AGL
Clouds: scattered clouds at 1200 feet AGL
overcast cloud deck at 20000 feet AGL
Weather: no significant weather observed at this time

METAR text: ROMD 231200Z AUTO 14009KT 110V180 9999 FEW011 OVC190 29/26 Q1013
Conditions at: ROMD (MINAMIDAITOJIMA , JP) observed 1200 UTC 23 August 2019
Temperature: 29.0°C (84°F)
Dewpoint: 26.0°C (79°F) [RH = 84%]
Pressure (altimeter): 29.91 inches Hg (1013.0 mb)
Winds: from the SE (140 degrees) at 10 MPH (9 knots; 4.6 m/s)
Visibility: 6 or more miles (10+ km)
Ceiling: 19000 feet AGL
Clouds: few clouds at 1100 feet AGL
overcast cloud deck at 19000 feet AGL
Weather: no significant weather observed at this time

METAR text: ROMD 231100Z AUTO 14010KT 100V180 9999 SCT013 SCT021 BKN130 28/25 Q1013
Conditions at: ROMD (MINAMIDAITOJIMA , JP) observed 1100 UTC 23 August 2019
Temperature: 28.0°C (82°F)
Dewpoint: 25.0°C (77°F) [RH = 84%]
Pressure (altimeter): 29.91 inches Hg (1013.0 mb)
Winds: from the SE (140 degrees) at 12 MPH (10 knots; 5.1 m/s)
Visibility: 6 or more miles (10+ km)
Ceiling: 13000 feet AGL
Clouds: scattered clouds at 1300 feet AGL
scattered clouds at 2100 feet AGL
broken clouds at 13000 feet AGL
Weather: no significant weather observed at this time

METAR text: ROMD 231000Z AUTO 13007KT 080V190 9999 SCT014 BKN018 OVC170 29/26 Q1012
Conditions at: ROMD (MINAMIDAITOJIMA , JP) observed 1000 UTC 23 August 2019
Temperature: 29.0°C (84°F)
Dewpoint: 26.0°C (79°F) [RH = 84%]
Pressure (altimeter): 29.88 inches Hg (1012.0 mb)
Winds: from the SE (130 degrees) at 8 MPH (7 knots; 3.6 m/s)
Visibility: 6 or more miles (10+ km)
Ceiling: 1800 feet AGL
Clouds: scattered clouds at 1400 feet AGL
broken clouds at 1800 feet AGL
overcast cloud deck at 17000 feet AGL
Weather: no significant weather observed at this time

METAR text: ROMD 230900Z AUTO 13007KT 050V180 9999 NSC 29/26 Q1011
Conditions at: ROMD (MINAMIDAITOJIMA , JP) observed 0900 UTC 23 August 2019
Temperature: 29.0°C (84°F)
Dewpoint: 26.0°C (79°F) [RH = 84%]
Pressure (altimeter): 29.85 inches Hg (1011.0 mb)
Winds: from the SE (130 degrees) at 8 MPH (7 knots; 3.6 m/s)
Visibility: 6 or more miles (10+ km)
Ceiling: at least 12,000 feet AGL
Clouds: sky clear below 12,000 feet AGL
Weather: no significant weather observed at this time

METAR text: ROMD 230800Z AUTO 13007KT 080V190 9999 NSC 29/26 Q1011
Conditions at: ROMD (MINAMIDAITOJIMA , JP) observed 0800 UTC 23 August 2019
Temperature: 29.0°C (84°F)
Dewpoint: 26.0°C (79°F) [RH = 84%]
Pressure (altimeter): 29.85 inches Hg (1011.0 mb)
Winds: from the SE (130 degrees) at 8 MPH (7 knots; 3.6 m/s)
Visibility: 6 or more miles (10+ km)
Ceiling: at least 12,000 feet AGL
Clouds: sky clear below 12,000 feet AGL
Weather: no significant weather observed at this time

METAR text: ROMD 230700Z AUTO VRB05KT 9999 SCT011 BKN150 30/27 Q1011
Conditions at: ROMD (MINAMIDAITOJIMA , JP) observed 0700 UTC 23 August 2019
Temperature: 30.0°C (86°F)
Dewpoint: 27.0°C (81°F) [RH = 84%]
Pressure (altimeter): 29.85 inches Hg (1011.0 mb)
Winds: variable direction winds at 6 MPH (5 knots; 2.6 m/s)
Visibility: 6 or more miles (10+ km)
Ceiling: 15000 feet AGL
Clouds: scattered clouds at 1100 feet AGL
broken clouds at 15000 feet AGL
Weather: no significant weather observed at this time

METAR text: ROMD 230600Z AUTO 13006KT 040V180 9999 SCT014 BKN140 30/27 Q1011
Conditions at: ROMD (MINAMIDAITOJIMA , JP) observed 0600 UTC 23 August 2019
Temperature: 30.0°C (86°F)
Dewpoint: 27.0°C (81°F) [RH = 84%]
Pressure (altimeter): 29.85 inches Hg (1011.0 mb)
Winds: from the SE (130 degrees) at 7 MPH (6 knots; 3.1 m/s)
Visibility: 6 or more miles (10+ km)
Ceiling: 14000 feet AGL
Clouds: scattered clouds at 1400 feet AGL
broken clouds at 14000 feet AGL
Weather: no significant weather observed at this time